Other Surface Observations
Issued by NWS Missoula, MT

Home | Current Version | Previous Version | Text Only | Print | Product List | Glossary On
Versions: 1 2 3 4 5 6 7 8 9 10 11 12 13 14 15 16 17 18 19 20 21 22 23 24 25 26 27 28 29 30 31 32 33 34 35 36 37 38 39 40 41 42 43 44 45 46 47 48 49 50
000
SXUS55 KMSO 180513
OSOMSO
MONTANA AWOS SUMMARY
NATIONAL WEATHER SERVICE MISSOULA MT
1113 PM MDT TUE OCT 17 2017

Montana AWOS Reports

TWIN BRIDGES|K7S1 180455Z AUTO 00000KT 40SM 11/M08 A2998 RMK AO1 T01111082
PLAINS      |KS34 180455Z AUTO 25005KT 25SM 13/M06 A3000 RMK AO1 T01331055
ROUNDUP     |KRPX 180455Z AUTO 24013KT 40SM 18/M08 A2966 RMK AO1 T01781077
SCOBEY      |K9S2 180455Z AUTO 25026G38KT 25SM 19/M06 A2954 RMK AO1 T01891055
EKALAKA     |K97M 180455Z AUTO VRB04KT 40SM 20/M09 A2974 RMK AO1 T02001093




USA.gov is the U.S. government's official web portal to all federal, state and local government web resources and services.